Архив погоды в Балашове

Метеограмма Балашов
Пятница, 21 Сентября
Время местн. Темп Ветер Видим Явления Облачность нижн/средн/верх Атм. давл. Влжн Точка росы ВНГО R Сост. почвы Tg s
Напр Скр Прв ур.ст ур.м изм
00:00 +16.6° З,С-З 2 - 20 км - ясно 747 761 -0.2 79% +12.9° более 2.5 км - - - -
Четверг, 20 Сентября
Время местн. Темп Ветер Видим Явления Облачность нижн/средн/верх Атм. давл. Влжн Точка росы ВНГО R Сост. почвы Tg s
Напр Скр Прв ур.ст ур.м изм
21:00 +17.4° Ю-З 2 - 20 км - переменная облачность 747 761 +0.2 74% +12.8° более 2.5 км - - - -
18:00 +21.9° З,С-З 2 - 20 км - переменная облачность 747 761 -0.2 56% +12.6° - - - - -
15:00 +24.2° З,С-З 4 - 20 км - облачно с прояснениями 747 761 -0.8 49% +12.9° 1.5 км - - - -
12:00 +23.2° З 5 11 20 км - преимущественно облачно 748 762 -0.5 57% +14.3° 1.5 км - - - -
09:00 +17.2° З,С-З 3 - 20 км - переменная облачность 749 763 +0.2 74% +12.5° более 2.5 км - - - -
06:00 +12.6° З 2 - 20 км - ясно 749 763 +0.1 90% +11° более 2.5 км - Сухая (без трещин) - -
03:00 +13.9° З 3 - 20 км - ясно 749 763 0 82% +10.9° более 2.5 км - - - -
00:00 +15.6° З 4 - 20 км - переменная облачность 749 763 -0.4 69% +9.9° - - - - -
Среда, 19 Сентября
Время местн. Темп Ветер Видим Явления Облачность нижн/средн/верх Атм. давл. Влжн Точка росы ВНГО R Сост. почвы Tg s
Напр Скр Прв ур.ст ур.м изм
21:00 +14.1° З 3 - 20 км - незначительная облачность 749 763 -0.4 72% +9.1° - - - - -
18:00 +16.6° С-З 3 - 20 км - облачно с прояснениями 749 763 +0.1 58% +8.3° 1.5 км - - - -
15:00 +18.1° С-З 5 12 20 км - переменная облачность 749 763 -0.4 45% +6.1° 1.5 км - - - -
12:00 +17.1° З,С-З 6 10 20 км - переменная облачность 750 764 0 48% +5.9° 1.5 км - - - -
09:00 +13.6° С-З 4 - 20 км - ясно 750 764 +0.8 68% +7.8° более 2.5 км - - - -
06:00 +9.8° С-З 2 - 20 км - облачно 749 763 +1.2 95% +9.1° более 2.5 км - Влажная (без луж) - -
03:00 +12.8° С-З 3 - 20 км - преимущественно облачно 748 762 +0.4 84% +10.2° - - - - -
00:00 +13.2° З,С-З 2 - 20 км - облачно с прояснениями 747 761 +0.2 89% +11.5° - - - - -
Вторник, 18 Сентября
Время местн. Темп Ветер Видим Явления Облачность нижн/средн/верх Атм. давл. Влжн Точка росы ВНГО R Сост. почвы Tg s
Напр Скр Прв ур.ст ур.м изм
21:00 +14.8° З 2 - 20 км - облачно с прояснениями 747 761 +0.2 76% +10.7° более 2.5 км - - - -
18:00 +16.1° З 3 - 20 км - облачно 747 761 -0.6 68% +10.2° - - - - -
15:00 +17.8° З,С-З 5 10 20 км - облачно 748 762 -0.8 54% +8.5° более 2.5 км - - - -
12:00 +17° З,С-З 5 10 20 км - облачно 748 762 -0.8 50% +6.6° более 2.5 км - - - -
09:00 +12.2° С-З 4 - 20 км - незначительная облачность 749 763 +0.8 73% +7.6° более 2.5 км - - - -
06:00 +6.7° С-З 3 - 20 км - облачно 748 763 +0.7 94% +5.8° 1 км - Влажная (без луж) - -
03:00 +8.1° С 3 - 20 км - облачно 748 762 +0.6 89% +6.4° 1 км - - - -
00:00 +11.1° С 5 - 20 км - облачно 747 761 +0.4 80% +7.7° 1.5 км - - - -
Понедельник, 17 Сентября
Время местн. Темп Ветер Видим Явления Облачность нижн/средн/верх Атм. давл. Влжн Точка росы ВНГО R Сост. почвы Tg s
Напр Скр Прв ур.ст ур.м изм
21:00 +11.7° С,С-З 4 - 10 км ливневый дождь облачно 747 761 +1.4 93% +10.6° 1 км - - - -